createdAt,value
2023-01-09T00:01:25.302Z,2.23
2023-01-09T00:03:52.350Z,2.50
2023-01-09T00:06:19.651Z,2.20
2023-01-09T00:08:46.645Z,2.37
2023-01-09T00:11:13.626Z,2.50
2023-01-09T00:13:40.647Z,2.70
2023-01-09T00:16:08.681Z,2.60
2023-01-09T00:18:36.579Z,2.63
2023-01-09T00:21:06.475Z,2.27
2023-01-09T00:23:33.587Z,2.90
2023-01-09T00:26:17.813Z,2.20
2023-01-09T00:28:46.643Z,2.73
2023-01-09T00:31:14.811Z,2.40
2023-01-09T00:33:50.443Z,2.57
2023-01-09T00:36:17.352Z,3.17
2023-01-09T00:38:44.257Z,3.10
2023-01-09T00:41:17.026Z,2.73
2023-01-09T00:43:53.303Z,2.50
2023-01-09T00:46:25.537Z,2.63
2023-01-09T00:48:52.633Z,2.97
2023-01-09T00:51:20.500Z,2.83
2023-01-09T00:53:49.333Z,2.70
2023-01-09T00:56:19.721Z,2.77
2023-01-09T00:58:47.164Z,3.30
2023-01-09T01:01:14.517Z,3.10
2023-01-09T01:03:41.583Z,2.80
2023-01-09T01:06:27.208Z,3.00
2023-01-09T01:08:55.851Z,2.87
2023-01-09T01:11:23.699Z,3.00
2023-01-09T01:13:50.821Z,3.17
2023-01-09T01:16:18.499Z,2.70
2023-01-09T01:18:46.001Z,3.50
2023-01-09T01:21:14.902Z,3.57
2023-01-09T01:23:42.036Z,3.17
2023-01-09T01:26:13.864Z,3.50
2023-01-09T01:28:41.463Z,4.50
2023-01-09T01:31:09.357Z,3.90
2023-01-09T01:33:36.537Z,4.83
2023-01-09T01:36:08.649Z,4.30
2023-01-09T01:38:36.352Z,4.10
2023-01-09T01:41:04.237Z,4.43
2023-01-09T01:44:00.148Z,4.70
2023-01-09T01:46:32.234Z,4.10
2023-01-09T01:49:05.660Z,4.40
2023-01-09T01:51:37.604Z,4.20
2023-01-09T01:54:11.161Z,4.47
2023-01-09T01:56:47.181Z,3.87
2023-01-09T01:59:22.265Z,4.33
2023-01-09T02:01:57.400Z,4.40
2023-01-09T02:04:24.803Z,4.57
2023-01-09T02:06:55.229Z,4.10
2023-01-09T02:09:23.308Z,5.00
2023-01-09T02:11:53.186Z,4.00
2023-01-09T02:14:27.871Z,4.60
2023-01-09T02:17:47.133Z,4.27
2023-01-09T02:20:35.940Z,4.40
2023-01-09T02:23:32.891Z,4.00
2023-01-09T02:26:47.765Z,4.10
2023-01-09T02:29:33.385Z,3.43
2023-01-09T02:32:19.260Z,3.97
2023-01-09T02:35:23.787Z,4.17
2023-01-09T02:38:34.287Z,3.37
2023-01-09T02:41:24.448Z,2.80
2023-01-09T02:44:18.286Z,3.43
2023-01-09T02:46:45.262Z,2.90
2023-01-09T02:49:14.039Z,3.27
2023-01-09T02:51:52.374Z,2.90
2023-01-09T02:54:51.810Z,3.10
2023-01-09T02:57:42.907Z,2.63
2023-01-09T03:00:27.588Z,2.20
2023-01-09T03:03:27.468Z,1.60
2023-01-09T03:06:07.971Z,2.10
2023-01-09T03:08:48.036Z,1.53
2023-01-09T03:11:15.395Z,1.60
2023-01-09T03:13:50.745Z,1.40
2023-01-09T03:16:24.461Z,1.30
2023-01-09T03:18:52.800Z,1.27
2023-01-09T03:21:21.777Z,0.90
2023-01-09T03:23:58.953Z,0.90
2023-01-09T03:26:26.757Z,0.90
2023-01-09T03:28:53.671Z,0.90
2023-01-09T03:31:20.661Z,0.80
2023-01-09T03:33:47.929Z,0.73
2023-01-09T03:36:16.812Z,1.10
2023-01-09T03:38:43.850Z,1.07
2023-01-09T03:41:10.829Z,0.90
2023-01-09T03:43:38.180Z,1.07
2023-01-09T03:46:05.568Z,1.10
2023-01-09T03:48:32.883Z,0.83
2023-01-09T03:50:59.904Z,1.00
2023-01-09T03:53:28.208Z,1.07
2023-01-09T03:55:57.157Z,1.47
2023-01-09T03:58:25.104Z,0.80
2023-01-09T04:00:58.465Z,1.00
2023-01-09T04:03:25.690Z,1.23
2023-01-09T04:05:52.719Z,1.00
2023-01-09T04:08:19.944Z,1.10
2023-01-09T04:10:48.784Z,1.30
2023-01-09T04:13:15.926Z,1.30
2023-01-09T04:15:42.835Z,1.37
2023-01-09T04:18:10.101Z,1.20
2023-01-09T04:20:37.163Z,1.20
2023-01-09T04:23:04.074Z,1.30
2023-01-09T04:25:30.968Z,1.30
2023-01-09T04:27:57.903Z,1.27
2023-01-09T04:30:25.131Z,1.40
2023-01-09T04:32:52.446Z,1.40
2023-01-09T04:35:20.001Z,1.50
2023-01-09T04:37:46.950Z,1.60
2023-01-09T04:40:14.614Z,1.60
2023-01-09T04:42:42.205Z,1.83
2023-01-09T04:45:11.276Z,1.50
2023-01-09T04:47:38.729Z,2.20
2023-01-09T04:50:06.305Z,1.57
2023-01-09T04:52:33.370Z,2.30
2023-01-09T04:55:00.322Z,2.70
2023-01-09T04:57:27.217Z,3.07
2023-01-09T04:59:54.392Z,2.73
2023-01-09T05:02:21.459Z,2.47
2023-01-09T05:04:48.455Z,2.27
2023-01-09T05:07:15.537Z,2.10
2023-01-09T05:09:43.490Z,2.03
2023-01-09T05:12:10.653Z,1.83
2023-01-09T05:14:37.536Z,2.30
2023-01-09T05:17:05.527Z,2.20
2023-01-09T05:19:32.430Z,2.47
2023-01-09T05:21:59.328Z,2.50
2023-01-09T05:24:26.245Z,3.00
2023-01-09T05:26:53.193Z,2.70
2023-01-09T05:29:20.074Z,3.40
2023-01-09T05:31:47.048Z,3.30
2023-01-09T05:34:13.987Z,3.70
2023-01-09T05:36:41.055Z,3.70
2023-01-09T05:39:07.968Z,3.72
2023-01-09T05:41:34.947Z,4.10
2023-01-09T05:44:01.849Z,3.80
2023-01-09T05:46:28.769Z,4.07
2023-01-09T05:48:55.665Z,4.30
2023-01-09T05:51:22.671Z,4.50
2023-01-09T05:53:49.816Z,4.80
2023-01-09T05:56:16.796Z,4.95
2023-01-09T05:58:43.724Z,4.30
2023-01-09T06:01:10.623Z,5.47
2023-01-09T06:03:37.579Z,6.73
2023-01-09T06:06:04.596Z,10.80
2023-01-09T06:08:31.488Z,12.77
2023-01-09T06:10:58.368Z,14.30
2023-01-09T06:13:25.327Z,15.00
2023-01-09T06:15:52.315Z,15.60
2023-01-09T06:18:19.236Z,14.65
2023-01-09T06:20:46.134Z,13.97
2023-01-09T06:23:13.724Z,11.77
2023-01-09T06:25:41.100Z,12.37
2023-01-09T06:28:08.101Z,9.00
2023-01-09T06:30:35.115Z,6.00
2023-01-09T06:33:02.116Z,7.13
2023-01-09T06:35:29.375Z,5.07
2023-01-09T06:37:57.002Z,6.00
2023-01-09T06:40:23.885Z,5.90
2023-01-09T06:42:50.833Z,6.30
2023-01-09T06:45:18.040Z,8.33
2023-01-09T06:47:44.981Z,15.60
2023-01-09T06:50:12.585Z,15.77
2023-01-09T06:52:40.169Z,16.40
2023-01-09T06:55:08.615Z,7.77
2023-01-09T06:57:35.827Z,7.70
2023-01-09T07:00:03.357Z,9.90
2023-01-09T07:02:30.252Z,13.07
2023-01-09T07:04:57.160Z,9.03
2023-01-09T07:07:24.227Z,5.37
2023-01-09T07:09:51.290Z,6.47
2023-01-09T07:12:18.244Z,4.90
2023-01-09T07:14:45.173Z,5.50
2023-01-09T07:17:13.648Z,6.03
2023-01-09T07:19:40.946Z,5.40
2023-01-09T07:22:08.173Z,6.90
2023-01-09T07:24:35.187Z,5.60
2023-01-09T07:27:02.990Z,5.53
2023-01-09T07:29:30.148Z,5.63
2023-01-09T07:31:57.355Z,5.60
2023-01-09T07:34:24.304Z,4.97
2023-01-09T07:36:51.746Z,6.40
2023-01-09T07:39:18.644Z,6.30
2023-01-09T07:41:46.238Z,7.10
2023-01-09T07:44:15.714Z,6.33
2023-01-09T07:46:42.657Z,7.33
2023-01-09T07:49:09.602Z,7.30
2023-01-09T07:51:39.091Z,6.97
2023-01-09T07:54:06.227Z,6.73
2023-01-09T07:56:33.127Z,7.87
2023-01-09T07:58:59.993Z,6.93
2023-01-09T08:01:27.158Z,7.70
2023-01-09T08:03:54.078Z,7.67
2023-01-09T08:06:20.969Z,8.20
2023-01-09T08:08:47.829Z,7.60
2023-01-09T08:11:14.755Z,6.90
2023-01-09T08:13:41.838Z,7.97
2023-01-09T08:16:09.060Z,7.17
2023-01-09T08:18:36.011Z,6.90
2023-01-09T08:21:02.952Z,7.20
2023-01-09T08:23:29.892Z,6.93
2023-01-09T08:25:56.762Z,8.07
2023-01-09T08:28:23.650Z,8.70
2023-01-09T08:30:50.581Z,7.80
2023-01-09T08:33:17.974Z,9.43
2023-01-09T08:35:45.203Z,8.60
2023-01-09T08:38:12.269Z,7.10
2023-01-09T08:40:39.241Z,8.90
2023-01-09T08:43:25.124Z,7.23
2023-01-09T08:46:21.058Z,6.93
2023-01-09T08:48:48.431Z,7.27
2023-01-09T08:51:15.656Z,6.73
2023-01-09T08:53:42.626Z,6.63
2023-01-09T08:56:10.225Z,6.83
2023-01-09T08:58:37.170Z,6.60
2023-01-09T09:01:08.130Z,6.43
2023-01-09T09:03:35.079Z,5.47
2023-01-09T09:06:02.010Z,6.20
2023-01-09T09:08:28.918Z,5.80
2023-01-09T09:10:57.310Z,5.90
2023-01-09T09:13:24.211Z,5.27
2023-01-09T09:15:51.236Z,4.80
2023-01-09T09:18:18.196Z,5.60
2023-01-09T09:20:45.273Z,4.60
2023-01-09T09:23:12.172Z,4.97
2023-01-09T09:25:39.533Z,4.50
2023-01-09T09:28:07.345Z,4.70
2023-01-09T09:30:34.714Z,4.37
2023-01-09T09:33:04.726Z,4.60
2023-01-09T09:35:33.762Z,4.50
2023-01-09T09:38:05.138Z,4.50
2023-01-09T09:40:51.350Z,4.10
2023-01-09T09:44:29.838Z,4.23
2023-01-09T09:47:42.523Z,4.57
2023-01-09T09:50:46.617Z,4.77
2023-01-09T09:53:47.559Z,3.60
2023-01-09T09:56:18.796Z,3.90
2023-01-09T09:58:55.946Z,3.63
2023-01-09T10:01:42.251Z,3.77
2023-01-09T10:04:17.011Z,4.17
2023-01-09T10:06:50.320Z,3.50
2023-01-09T10:09:36.068Z,4.17
2023-01-09T10:12:30.920Z,3.20
2023-01-09T10:15:20.037Z,3.17
2023-01-09T10:18:34.363Z,4.00
2023-01-09T10:21:25.368Z,2.03
2023-01-09T10:24:22.185Z,2.70
2023-01-09T10:26:52.512Z,2.40
2023-01-09T10:29:41.757Z,2.60
2023-01-09T10:32:47.290Z,2.30
2023-01-09T10:35:47.329Z,2.70
2023-01-09T10:38:35.371Z,2.23
2023-01-09T10:41:14.172Z,2.10
2023-01-09T10:44:06.801Z,1.90
2023-01-09T10:46:47.706Z,2.30
2023-01-09T10:49:18.621Z,1.80
2023-01-09T10:52:10.994Z,1.70
2023-01-09T10:54:49.103Z,2.03
2023-01-09T10:57:54.158Z,1.80
2023-01-09T11:00:24.148Z,2.33
2023-01-09T11:02:52.794Z,1.60
2023-01-09T11:05:32.712Z,1.60
2023-01-09T11:08:13.938Z,1.63
2023-01-09T11:11:00.758Z,1.90
2023-01-09T11:13:34.546Z,1.80
2023-01-09T11:16:10.731Z,1.30
2023-01-09T11:19:04.287Z,2.00
2023-01-09T11:21:39.235Z,1.70
2023-01-09T11:24:21.435Z,1.90
2023-01-09T11:26:51.977Z,2.27
2023-01-09T11:29:21.780Z,1.87
2023-01-09T11:32:01.775Z,1.87
2023-01-09T11:34:34.183Z,2.03
2023-01-09T11:37:12.139Z,2.17
2023-01-09T11:39:45.443Z,2.60
2023-01-09T11:42:45.148Z,2.63
2023-01-09T11:45:17.198Z,2.33
2023-01-09T11:47:45.091Z,3.03
2023-01-09T11:50:19.054Z,2.30
2023-01-09T11:52:47.380Z,2.53
2023-01-09T11:55:19.733Z,2.70
2023-01-09T11:57:46.755Z,2.63
2023-01-09T12:00:29.980Z,5.93
2023-01-09T12:03:40.819Z,2.60
2023-01-09T12:06:57.923Z,2.80
2023-01-09T12:09:56.274Z,2.60
2023-01-09T12:13:00.076Z,3.00
2023-01-09T12:15:51.130Z,3.20
2023-01-09T12:18:44.431Z,2.70
2023-01-09T12:21:29.056Z,3.00
2023-01-09T12:24:39.016Z,4.70
2023-01-09T12:27:32.391Z,3.70
2023-01-09T12:30:29.381Z,3.40
2023-01-09T12:33:23.937Z,8.50
2023-01-09T12:36:20.110Z,4.20
2023-01-09T12:38:54.764Z,3.97
2023-01-09T12:41:47.933Z,3.70
2023-01-09T12:44:45.088Z,4.00
2023-01-09T12:47:31.323Z,3.57
2023-01-09T12:50:18.780Z,3.63
2023-01-09T12:53:10.063Z,3.40
2023-01-09T12:55:49.504Z,4.10
2023-01-09T12:58:52.128Z,4.10
2023-01-09T13:01:38.831Z,4.40
2023-01-09T13:04:20.243Z,4.33
2023-01-09T13:07:02.882Z,4.37
2023-01-09T13:09:47.779Z,6.87
2023-01-09T13:12:21.751Z,4.70
2023-01-09T13:15:19.793Z,4.00
2023-01-09T13:17:54.627Z,4.60
2023-01-09T13:20:28.238Z,8.77
2023-01-09T13:22:55.533Z,13.03
2023-01-09T13:25:44.551Z,13.23
2023-01-09T13:28:31.731Z,11.00
2023-01-09T13:31:17.569Z,11.50
2023-01-09T13:33:52.612Z,9.00
2023-01-09T13:36:46.705Z,5.90
2023-01-09T13:39:29.219Z,8.07
2023-01-09T13:42:45.888Z,9.57
2023-01-09T13:45:34.428Z,18.00
2023-01-09T13:48:17.599Z,16.10
2023-01-09T13:50:47.058Z,18.20
2023-01-09T13:53:19.804Z,23.00
2023-01-09T13:56:06.722Z,17.30
2023-01-09T13:58:40.255Z,22.30
2023-01-09T14:01:39.692Z,15.93
2023-01-09T14:04:34.380Z,7.93
2023-01-09T14:07:23.171Z,2.30
2023-01-09T14:09:57.048Z,1.33
2023-01-09T14:12:25.178Z,1.53
2023-01-09T14:14:55.991Z,2.00
2023-01-09T14:17:34.609Z,0.90
2023-01-09T14:20:23.580Z,1.10
2023-01-09T14:23:18.166Z,9.63
2023-01-09T14:25:44.961Z,19.30
2023-01-09T14:28:26.628Z,0.90
2023-01-09T14:30:53.405Z,2.10
2023-01-09T14:33:20.318Z,2.10
2023-01-09T14:36:13.110Z,1.23
2023-01-09T14:38:48.265Z,2.47
2023-01-09T14:41:51.593Z,0.70
2023-01-09T14:44:59.371Z,1.40
2023-01-09T14:47:45.263Z,1.70
2023-01-09T14:50:25.688Z,1.77
2023-01-09T14:53:03.869Z,1.43
2023-01-09T14:55:46.985Z,0.90
2023-01-09T14:58:34.401Z,1.50
2023-01-09T15:01:06.701Z,2.30
2023-01-09T15:03:59.112Z,2.17
2023-01-09T15:06:31.079Z,2.10
2023-01-09T15:09:07.089Z,2.07
2023-01-09T15:11:37.311Z,1.83
2023-01-09T15:14:07.245Z,2.00
2023-01-09T15:16:34.405Z,2.00
2023-01-09T15:19:06.270Z,2.17
2023-01-09T15:21:33.485Z,2.20
2023-01-09T15:24:12.943Z,2.17
2023-01-09T15:26:40.300Z,2.22
2023-01-09T15:29:20.506Z,2.17
2023-01-09T15:31:53.766Z,2.15
2023-01-09T15:34:24.648Z,2.05
2023-01-09T15:36:53.164Z,2.85
2023-01-09T15:39:27.006Z,2.70
2023-01-09T15:42:13.827Z,4.00
2023-01-09T15:44:43.838Z,4.50
2023-01-09T15:47:23.972Z,4.50
2023-01-09T15:49:51.308Z,3.10
2023-01-09T15:52:19.349Z,3.60
2023-01-09T15:54:46.924Z,3.28
2023-01-09T15:57:25.811Z,4.15
2023-01-09T16:00:26.336Z,2.77
2023-01-09T16:03:11.908Z,3.50
2023-01-09T16:05:52.234Z,2.50
2023-01-09T16:08:34.364Z,2.20
2023-01-09T16:11:10.552Z,2.30
2023-01-09T16:13:45.490Z,2.50
2023-01-09T16:16:13.940Z,3.20
2023-01-09T16:18:52.651Z,3.35
2023-01-09T16:21:30.885Z,2.40
2023-01-09T16:24:07.277Z,1.98
2023-01-09T16:26:34.830Z,2.58
2023-01-09T16:29:37.712Z,2.17
2023-01-09T16:32:06.802Z,12.00
2023-01-09T16:34:35.494Z,2.90
2023-01-09T16:37:04.869Z,2.30
2023-01-09T16:39:31.819Z,2.00
2023-01-09T16:42:17.593Z,3.00
2023-01-09T16:44:44.550Z,2.22
2023-01-09T16:47:12.620Z,2.23
2023-01-09T16:49:39.582Z,2.60
2023-01-09T16:52:16.797Z,2.60
2023-01-09T16:54:46.635Z,2.83
2023-01-09T16:57:18.814Z,2.83
2023-01-09T16:59:46.613Z,2.80
2023-01-09T17:02:20.001Z,2.88
2023-01-09T17:04:47.164Z,3.30
2023-01-09T17:07:16.143Z,3.00
2023-01-09T17:09:43.917Z,3.60
2023-01-09T17:12:22.269Z,3.33
2023-01-09T17:14:49.818Z,3.70
2023-01-09T17:17:17.946Z,6.55
2023-01-09T17:19:46.748Z,5.32
2023-01-09T17:22:14.423Z,4.70
2023-01-09T17:25:00.154Z,4.82
2023-01-09T17:27:52.995Z,5.30
2023-01-09T17:30:20.768Z,5.80
2023-01-09T17:32:48.752Z,6.22
2023-01-09T17:35:16.106Z,6.80
2023-01-09T17:37:43.570Z,7.40
2023-01-09T17:40:22.931Z,7.60
2023-01-09T17:42:49.853Z,7.50
2023-01-09T17:45:16.859Z,8.50
2023-01-09T17:47:43.784Z,8.27
2023-01-09T17:50:20.053Z,9.20
2023-01-09T17:52:48.474Z,9.40
2023-01-09T17:55:15.772Z,9.73
2023-01-09T17:57:44.021Z,9.50
2023-01-09T18:00:36.934Z,9.35
2023-01-09T18:03:05.123Z,10.20
2023-01-09T18:05:32.125Z,10.50
2023-01-09T18:07:59.261Z,10.73
2023-01-09T18:10:30.136Z,11.00
2023-01-09T18:12:57.134Z,11.57
2023-01-09T18:15:24.519Z,11.23
2023-01-09T18:17:52.349Z,11.60
2023-01-09T18:20:19.743Z,14.20
2023-01-09T18:22:47.568Z,20.77
2023-01-09T18:25:14.513Z,33.25
2023-01-09T18:27:41.660Z,13.65
2023-01-09T18:30:09.854Z,13.65
2023-01-09T18:32:39.180Z,11.25
2023-01-09T18:35:06.258Z,10.57
2023-01-09T18:37:36.001Z,10.65
2023-01-09T18:40:03.276Z,10.60
2023-01-09T18:42:30.219Z,10.40
2023-01-09T18:44:57.191Z,10.30
2023-01-09T18:47:24.204Z,10.50
2023-01-09T18:49:51.172Z,9.57
2023-01-09T18:52:18.058Z,10.63
2023-01-09T18:54:45.042Z,10.30
2023-01-09T18:57:11.950Z,9.40
2023-01-09T18:59:38.928Z,9.30
2023-01-09T19:02:06.863Z,8.93
2023-01-09T19:04:34.632Z,8.10
2023-01-09T19:07:01.683Z,8.02
2023-01-09T19:09:28.587Z,7.05
2023-01-09T19:11:55.497Z,7.60
2023-01-09T19:14:22.395Z,6.93
2023-01-09T19:16:49.485Z,6.60
2023-01-09T19:19:16.452Z,6.50
2023-01-09T19:21:45.468Z,6.27
2023-01-09T19:24:12.528Z,6.15
2023-01-09T19:26:39.463Z,5.80
2023-01-09T19:29:06.439Z,6.40
2023-01-09T19:31:34.139Z,5.90
2023-01-09T19:34:01.852Z,6.38
2023-01-09T19:36:29.221Z,5.68
2023-01-09T19:39:03.274Z,6.50
2023-01-09T19:41:30.707Z,5.60
2023-01-09T19:43:59.870Z,5.30
2023-01-09T19:46:27.045Z,6.00
2023-01-09T19:48:54.292Z,5.50
2023-01-09T19:51:22.622Z,6.13
2023-01-09T19:54:03.458Z,5.90
2023-01-09T19:56:35.563Z,6.53
2023-01-09T19:59:04.537Z,7.35
2023-01-09T20:01:38.775Z,7.47
2023-01-09T20:04:13.413Z,7.78
2023-01-09T20:06:43.906Z,7.70
2023-01-09T20:09:12.612Z,8.73
2023-01-09T20:11:41.277Z,9.10
2023-01-09T20:14:15.187Z,8.77
2023-01-09T20:16:43.343Z,8.47
2023-01-09T20:19:12.753Z,8.90
2023-01-09T20:21:39.757Z,9.10
2023-01-09T20:24:08.022Z,8.00
2023-01-09T20:26:36.849Z,8.23
2023-01-09T20:29:04.381Z,8.17
2023-01-09T20:31:32.487Z,7.63
2023-01-09T20:33:59.897Z,8.40
2023-01-09T20:36:30.026Z,8.30
2023-01-09T20:39:02.076Z,9.13
2023-01-09T20:41:30.778Z,9.30
2023-01-09T20:44:01.204Z,10.10
2023-01-09T20:46:33.002Z,10.27
2023-01-09T20:49:03.493Z,10.43
2023-01-09T20:51:31.142Z,9.93
2023-01-09T20:53:58.583Z,9.70
2023-01-09T20:56:31.936Z,11.10
2023-01-09T20:59:00.541Z,11.10
2023-01-09T21:01:28.590Z,11.43
2023-01-09T21:03:58.006Z,9.00
2023-01-09T21:06:26.205Z,11.17
2023-01-09T21:08:53.338Z,10.90
2023-01-09T21:11:22.480Z,10.60
2023-01-09T21:13:49.997Z,11.87
2023-01-09T21:16:21.372Z,10.60
2023-01-09T21:18:49.066Z,10.53
2023-01-09T21:21:21.534Z,12.13
2023-01-09T21:23:57.917Z,10.50
2023-01-09T21:26:28.844Z,11.93
2023-01-09T21:28:58.063Z,11.33
2023-01-09T21:31:34.305Z,11.47
2023-01-09T21:34:07.832Z,11.53
2023-01-09T21:36:35.936Z,11.20
2023-01-09T21:39:07.680Z,11.17
2023-01-09T21:41:54.240Z,11.30
2023-01-09T21:44:39.946Z,12.03
2023-01-09T21:47:06.970Z,11.33
2023-01-09T21:49:36.006Z,10.83
2023-01-09T21:52:04.508Z,11.03
2023-01-09T21:54:31.970Z,12.20
2023-01-09T21:56:59.372Z,11.47
2023-01-09T21:59:26.628Z,12.00
2023-01-09T22:01:53.658Z,11.50
2023-01-09T22:04:23.693Z,13.50
2023-01-09T22:06:50.703Z,11.00
2023-01-09T22:09:18.143Z,12.07
2023-01-09T22:11:45.137Z,12.70
2023-01-09T22:14:15.044Z,12.30
2023-01-09T22:16:43.690Z,13.63
2023-01-09T22:19:12.649Z,15.80
2023-01-09T22:21:40.146Z,12.30
2023-01-09T22:24:07.408Z,12.53
2023-01-09T22:26:35.701Z,12.30
2023-01-09T22:29:02.656Z,11.70
2023-01-09T22:31:29.797Z,11.67
2023-01-09T22:33:58.617Z,13.70
2023-01-09T22:36:28.856Z,13.07
2023-01-09T22:38:58.063Z,12.80
2023-01-09T22:41:27.107Z,14.27
2023-01-09T22:43:54.026Z,13.60
2023-01-09T22:46:21.261Z,10.93
2023-01-09T22:48:48.236Z,13.10
2023-01-09T22:51:20.678Z,12.37
2023-01-09T22:53:48.002Z,13.10
2023-01-09T22:56:21.563Z,15.37
2023-01-09T22:58:53.364Z,11.90
2023-01-09T23:01:22.175Z,13.57
2023-01-09T23:03:49.268Z,14.50
2023-01-09T23:06:22.104Z,13.53
2023-01-09T23:08:50.826Z,13.80
2023-01-09T23:11:46.868Z,14.80
2023-01-09T23:14:14.050Z,15.13
2023-01-09T23:16:41.175Z,15.07
2023-01-09T23:19:17.309Z,12.53
2023-01-09T23:21:45.195Z,14.60
2023-01-09T23:24:14.559Z,14.90
2023-01-09T23:26:43.565Z,13.03
2023-01-09T23:29:12.337Z,15.13
2023-01-09T23:31:39.603Z,14.40
2023-01-09T23:34:08.243Z,14.43
2023-01-09T23:36:36.148Z,14.13
2023-01-09T23:39:04.205Z,14.50
2023-01-09T23:41:49.539Z,15.30
2023-01-09T23:44:16.581Z,14.10
2023-01-09T23:46:43.555Z,14.70
2023-01-09T23:49:10.519Z,14.37
2023-01-09T23:51:37.485Z,15.67
2023-01-09T23:54:04.500Z,13.70
2023-01-09T23:56:33.820Z,15.40
2023-01-09T23:59:02.215Z,15.40
